Time;durP1;ratioP1;P1;durP2;ratioP2;P2;SDS_P1;SDS_P2;PMS_P1;PMS_P2;Temp;Humidity;BMP_temperature;BMP_pressure;BME280_temperature;BME280_humidity;BME280_pressure;Samples;Min_cycle;Max_cycle;Signal;HPM_P1;HPM_P2
2021/07/15 00:02:20;;;;;;;20.75;12.70;;;;;;;;;;5005423;28;20142;-76
2021/07/15 00:04:47;;;;;;;19.48;12.30;;;;;;;;;;4986872;28;20519;-76
2021/07/15 00:07:15;;;;;;;20.63;12.77;;;;;;;;;;5002079;28;20824;-76
2021/07/15 00:09:43;;;;;;;22.17;12.75;;;;;;;;;;5004977;28;20144;-76
2021/07/15 00:12:13;;;;;;;18.52;11.93;;;;;;;;;;5002467;28;20402;-76
2021/07/15 00:14:40;;;;;;;18.60;11.95;;;;;;;;;;5006340;28;20041;-76
2021/07/15 00:17:08;;;;;;;20.30;12.80;;;;;;;;;;5006135;28;20132;-75
2021/07/15 00:19:35;;;;;;;19.38;11.95;;;;;;;;;;5005481;28;20558;-76
2021/07/15 00:22:02;;;;;;;17.30;11.43;;;;;;;;;;5002679;28;20046;-76
2021/07/15 00:24:29;;;;;;;18.08;12.60;;;;;;;;;;5002556;28;20054;-76
2021/07/15 00:26:56;;;;;;;16.65;10.95;;;;;;;;;;5001103;28;20709;-76
2021/07/15 00:29:24;;;;;;;15.10;11.27;;;;;;;;;;5002706;28;20463;-76
2021/07/15 00:31:52;;;;;;;19.85;12.13;;;;;;;;;;5000887;28;20125;-76
2021/07/15 00:34:20;;;;;;;15.30;11.05;;;;;;;;;;5006905;28;20115;-76
2021/07/15 00:36:48;;;;;;;17.73;11.63;;;;;;;;;;5004889;28;20778;-75
2021/07/15 00:39:15;;;;;;;17.23;10.73;;;;;;;;;;5004610;28;20127;-76
2021/07/15 00:41:42;;;;;;;15.50;10.45;;;;;;;;;;5002403;28;20137;-76
2021/07/15 00:44:09;;;;;;;14.70;10.52;;;;;;;;;;5004892;28;20136;-76
2021/07/15 00:46:37;;;;;;;17.33;10.80;;;;;;;;;;5003653;28;21255;-76
2021/07/15 00:49:04;;;;;;;20.50;10.77;;;;;;;;;;5004717;28;20111;-76
2021/07/15 00:51:31;;;;;;;13.90;9.43;;;;;;;;;;5000057;28;20081;-76
2021/07/15 00:53:59;;;;;;;13.90;9.15;;;;;;;;;;5005630;28;20133;-76
2021/07/15 00:56:28;;;;;;;13.52;9.07;;;;;;;;;;5005937;28;20138;-76
2021/07/15 00:58:56;;;;;;;15.52;8.80;;;;;;;;;;5006802;28;20049;-77
2021/07/15 01:01:23;;;;;;;14.40;9.80;;;;;;;;;;5003129;28;20046;-77
2021/07/15 01:03:51;;;;;;;19.40;10.02;;;;;;;;;;5010031;28;20053;-77
2021/07/15 01:06:19;;;;;;;15.38;10.32;;;;;;;;;;5009126;28;20116;-77
2021/07/15 01:08:46;;;;;;;16.23;10.27;;;;;;;;;;5006370;28;20113;-76
2021/07/15 01:11:23;;;;;;;16.17;11.48;;;;;;;;;;5005057;28;20045;-76
2021/07/15 01:13:52;;;;;;;17.60;10.50;;;;;;;;;;5008364;28;20567;-76
2021/07/15 01:16:28;;;;;;;16.75;10.43;;;;;;;;;;5008925;28;20132;-76
2021/07/15 01:19:01;;;;;;;15.00;10.60;;;;;;;;;;5009074;28;20415;-77
2021/07/15 01:21:47;;;;;;;16.00;10.55;;;;;;;;;;5005624;28;20141;-77
2021/07/15 01:24:34;;;;;;;16.65;10.98;;;;;;;;;;4999622;28;20046;-76
2021/07/15 01:27:14;;;;;;;14.95;10.23;;;;;;;;;;5006213;28;20136;-76
2021/07/15 01:30:00;;;;;;;21.92;10.95;;;;;;;;;;5007122;28;20128;-76
2021/07/15 01:32:27;;;;;;;;;;;;;;;;;;5004800;28;20060;-77
2021/07/15 01:34:57;;;;;;;18.25;9.88;;;;;;;;;;5007713;28;20016;-76
2021/07/15 01:37:24;;;;;;;17.63;10.52;;;;;;;;;;5009198;28;20048;-76
2021/07/15 01:39:55;;;;;;;14.43;10.32;;;;;;;;;;5006439;28;20162;-76
2021/07/15 01:42:22;;;;;;;14.73;10.93;;;;;;;;;;5006195;28;20137;-76
2021/07/15 01:44:49;;;;;;;13.63;9.55;;;;;;;;;;5008411;28;20060;-77
2021/07/15 01:47:17;;;;;;;15.15;10.27;;;;;;;;;;5005624;28;21155;-77
2021/07/15 01:49:44;;;;;;;12.52;8.98;;;;;;;;;;5002946;28;20049;-77
2021/07/15 01:52:12;;;;;;;18.35;9.48;;;;;;;;;;5000788;28;20057;-76
2021/07/15 01:54:39;;;;;;;14.05;9.25;;;;;;;;;;5005692;28;20065;-76
2021/07/15 01:57:07;;;;;;;15.18;9.07;;;;;;;;;;5013656;28;20132;-76
2021/07/15 01:59:36;;;;;;;13.50;8.55;;;;;;;;;;4986211;28;20539;-76
2021/07/15 02:02:05;;;;;;;13.95;7.63;;;;;;;;;;4999978;28;20077;-76
2021/07/15 02:04:34;;;;;;;14.93;7.68;;;;;;;;;;5005952;28;20735;-76
2021/07/15 02:07:01;;;;;;;12.70;7.45;;;;;;;;;;5007080;28;20526;-76
2021/07/15 02:09:30;;;;;;;10.23;7.47;;;;;;;;;;5005557;28;20454;-76
2021/07/15 02:11:57;;;;;;;9.20;6.75;;;;;;;;;;5002127;28;20577;-76
2021/07/15 02:14:25;;;;;;;13.45;6.20;;;;;;;;;;5007926;28;20049;-76
2021/07/15 02:16:54;;;;;;;11.10;6.47;;;;;;;;;;5007862;28;20141;-76
2021/07/15 02:19:22;;;;;;;11.38;5.63;;;;;;;;;;5003106;28;20046;-76
2021/07/15 02:21:49;;;;;;;9.70;6.18;;;;;;;;;;5005989;28;20085;-76
2021/07/15 02:24:18;;;;;;;13.60;6.07;;;;;;;;;;5007958;28;20083;-76
2021/07/15 02:26:46;;;;;;;8.20;5.90;;;;;;;;;;5008234;28;20042;-77
2021/07/15 02:29:13;;;;;;;15.60;6.68;;;;;;;;;;5003753;28;20050;-76
2021/07/15 02:31:45;;;;;;;9.27;5.05;;;;;;;;;;5006580;28;20129;-76
2021/07/15 02:34:22;;;;;;;12.27;4.95;;;;;;;;;;5008139;28;20061;-76
2021/07/15 02:36:49;;;;;;;11.63;5.15;;;;;;;;;;5006072;28;20513;-76
2021/07/15 02:39:17;;;;;;;9.07;4.68;;;;;;;;;;5006145;28;20749;-76
2021/07/15 02:41:44;;;;;;;10.20;4.70;;;;;;;;;;5006248;28;20130;-78
2021/07/15 02:44:11;;;;;;;7.60;4.65;;;;;;;;;;5009349;28;20743;-78
2021/07/15 02:46:39;;;;;;;8.57;4.35;;;;;;;;;;5010542;28;20049;-78
2021/07/15 02:49:08;;;;;;;9.68;4.72;;;;;;;;;;5009935;28;20125;-78
2021/07/15 02:51:35;;;;;;;11.02;4.60;;;;;;;;;;5004852;28;20130;-77
2021/07/15 02:54:03;;;;;;;14.20;5.72;;;;;;;;;;5008392;28;20153;-77
2021/07/15 02:56:50;;;;;;;5.95;4.07;;;;;;;;;;5009458;28;20758;-77
2021/07/15 02:59:41;;;;;;;6.47;3.70;;;;;;;;;;5006567;28;20058;-76
2021/07/15 03:02:19;;;;;;;12.40;4.35;;;;;;;;;;5012408;22;20071;-76
2021/07/15 03:04:55;;;;;;;10.80;4.45;;;;;;;;;;4997191;28;20054;-76
2021/07/15 03:07:25;;;;;;;8.23;4.18;;;;;;;;;;4995746;28;20109;-76
2021/07/15 03:09:54;;;;;;;10.18;4.10;;;;;;;;;;5002856;28;20057;-76
2021/07/15 03:12:23;;;;;;;13.82;4.18;;;;;;;;;;5005313;28;20049;-76
2021/07/15 03:14:53;;;;;;;12.13;3.85;;;;;;;;;;4993730;28;20050;-76
2021/07/15 03:17:25;;;;;;;14.98;4.80;;;;;;;;;;5008502;28;20078;-77
2021/07/15 03:19:53;;;;;;;7.25;4.50;;;;;;;;;;4999173;28;20585;-76
2021/07/15 03:22:23;;;;;;;14.20;4.80;;;;;;;;;;5002129;28;20061;-76
2021/07/15 03:24:56;;;;;;;12.80;4.57;;;;;;;;;;5006925;28;20132;-76
2021/07/15 03:27:25;;;;;;;18.40;4.88;;;;;;;;;;5006782;28;20598;-76
2021/07/15 03:29:54;;;;;;;11.50;4.78;;;;;;;;;;5001109;28;20513;-75
2021/07/15 03:32:22;;;;;;;12.20;5.00;;;;;;;;;;4999417;28;20046;-76
2021/07/15 03:34:50;;;;;;;9.20;4.60;;;;;;;;;;4997841;28;20133;-75
2021/07/15 03:37:17;;;;;;;7.85;5.05;;;;;;;;;;4999266;28;20489;-76
2021/07/15 03:39:47;;;;;;;14.68;4.53;;;;;;;;;;5004415;28;20050;-76
2021/07/15 03:42:15;;;;;;;13.02;5.05;;;;;;;;;;5001389;28;20081;-76
2021/07/15 03:44:42;;;;;;;15.23;5.47;;;;;;;;;;5005847;28;20089;-76
2021/07/15 03:47:09;;;;;;;18.77;5.47;;;;;;;;;;5007316;28;20140;-76
2021/07/15 03:49:37;;;;;;;17.80;5.53;;;;;;;;;;5005695;28;20084;-76
2021/07/15 03:52:04;;;;;;;18.67;5.13;;;;;;;;;;5003790;28;20144;-76
2021/07/15 03:54:33;;;;;;;10.85;4.18;;;;;;;;;;5005845;28;20455;-76
2021/07/15 03:57:00;;;;;;;20.02;4.60;;;;;;;;;;5006513;28;20148;-76
2021/07/15 03:59:30;;;;;;;10.30;3.88;;;;;;;;;;5002987;28;20490;-76
2021/07/15 04:02:01;;;;;;;21.65;4.38;;;;;;;;;;5003764;28;20049;-76
2021/07/15 04:04:29;;;;;;;11.68;4.15;;;;;;;;;;5005579;28;20410;-75
2021/07/15 04:06:58;;;;;;;15.10;4.22;;;;;;;;;;5005064;28;20057;-76
2021/07/15 04:09:26;;;;;;;5.03;3.60;;;;;;;;;;5003470;28;20056;-76
2021/07/15 04:11:55;;;;;;;12.30;4.30;;;;;;;;;;5002348;28;20056;-77
2021/07/15 04:14:31;;;;;;;17.50;3.65;;;;;;;;;;5005769;28;20046;-77
2021/07/15 04:17:08;;;;;;;11.90;3.92;;;;;;;;;;5005010;28;20060;-77
2021/07/15 04:19:37;;;;;;;8.57;4.22;;;;;;;;;;5001582;28;20405;-76
2021/07/15 04:22:05;;;;;;;14.88;4.47;;;;;;;;;;5000281;28;20078;-77
2021/07/15 04:24:34;;;;;;;6.82;4.10;;;;;;;;;;5002860;28;20161;-77
2021/07/15 04:27:02;;;;;;;12.65;4.57;;;;;;;;;;5004978;28;20166;-77
2021/07/15 04:29:30;;;;;;;11.40;4.57;;;;;;;;;;5002625;28;20133;-77
2021/07/15 04:31:58;;;;;;;9.10;3.88;;;;;;;;;;5002272;28;20073;-77
2021/07/15 04:34:27;;;;;;;14.60;4.85;;;;;;;;;;5012302;28;20125;-77
2021/07/15 04:36:56;;;;;;;16.27;5.53;;;;;;;;;;5020981;28;20146;-77
2021/07/15 04:39:26;;;;;;;27.77;5.13;;;;;;;;;;5001081;28;20553;-77
2021/07/15 04:41:55;;;;;;;17.73;4.90;;;;;;;;;;5001814;28;20162;-76
2021/07/15 04:44:23;;;;;;;12.70;4.45;;;;;;;;;;5004334;28;20064;-76
2021/07/15 04:46:51;;;;;;;11.15;4.63;;;;;;;;;;5006476;28;20061;-77
2021/07/15 04:49:19;;;;;;;17.45;4.43;;;;;;;;;;4998164;28;20089;-76
2021/07/15 04:51:47;;;;;;;13.13;4.18;;;;;;;;;;5002484;28;20131;-77
2021/07/15 04:54:15;;;;;;;14.27;4.50;;;;;;;;;;5002671;28;20160;-77
2021/07/15 04:56:42;;;;;;;12.07;4.30;;;;;;;;;;5003049;28;20542;-76
2021/07/15 04:59:10;;;;;;;14.57;4.00;;;;;;;;;;5001248;28;20045;-76
2021/07/15 05:01:37;;;;;;;9.20;4.43;;;;;;;;;;4993392;28;20053;-78
2021/07/15 05:04:05;;;;;;;12.18;5.05;;;;;;;;;;4997513;28;20042;-77
2021/07/15 05:06:32;;;;;;;14.73;4.78;;;;;;;;;;5004342;28;20064;-78
2021/07/15 05:09:00;;;;;;;9.18;4.60;;;;;;;;;;5003815;28;20479;-80
2021/07/15 05:11:27;;;;;;;13.25;5.20;;;;;;;;;;4995363;28;20096;-77
2021/07/15 05:13:54;;;;;;;15.70;5.03;;;;;;;;;;5007850;28;20761;-79
2021/07/15 05:16:24;;;;;;;6.78;4.40;;;;;;;;;;5008718;28;20057;-79
2021/07/15 05:18:51;;;;;;;9.70;4.30;;;;;;;;;;5009467;28;20050;-79
2021/07/15 05:21:19;;;;;;;9.65;4.40;;;;;;;;;;5002073;28;20541;-78
2021/07/15 05:23:46;;;;;;;10.20;4.70;;;;;;;;;;5007698;28;20088;-78
2021/07/15 05:26:14;;;;;;;13.63;4.38;;;;;;;;;;5006914;28;20089;-78
2021/07/15 05:28:42;;;;;;;7.15;4.15;;;;;;;;;;5008264;28;20483;-78
2021/07/15 05:31:09;;;;;;;12.48;4.22;;;;;;;;;;5002273;28;20165;-79
2021/07/15 05:33:37;;;;;;;10.05;5.18;;;;;;;;;;5007844;28;20049;-79
2021/07/15 05:36:05;;;;;;;14.60;4.63;;;;;;;;;;5006714;28;20503;-78
2021/07/15 05:38:32;;;;;;;13.18;4.53;;;;;;;;;;5006847;28;20730;-78
2021/07/15 05:40:59;;;;;;;14.48;4.57;;;;;;;;;;4997697;28;20154;-77
2021/07/15 05:43:26;;;;;;;8.32;4.30;;;;;;;;;;5005558;28;20095;-77
2021/07/15 05:45:53;;;;;;;11.10;4.85;;;;;;;;;;5005992;28;20475;-77
2021/07/15 05:48:20;;;;;;;14.20;4.55;;;;;;;;;;5009523;28;20144;-77
2021/07/15 05:50:49;;;;;;;11.77;4.40;;;;;;;;;;5000883;28;20057;-78
2021/07/15 05:53:16;;;;;;;7.18;3.60;;;;;;;;;;5010257;28;20132;-78
2021/07/15 05:55:43;;;;;;;5.63;4.00;;;;;;;;;;5009823;28;20089;-78
2021/07/15 05:58:10;;;;;;;9.40;3.90;;;;;;;;;;5009233;28;20505;-78
2021/07/15 06:00:37;;;;;;;14.02;4.18;;;;;;;;;;4999570;28;20049;-77
2021/07/15 06:03:05;;;;;;;12.50;4.20;;;;;;;;;;5009020;28;20058;-77
2021/07/15 06:05:33;;;;;;;10.88;4.45;;;;;;;;;;5009033;28;20089;-78
2021/07/15 06:08:01;;;;;;;8.85;4.50;;;;;;;;;;5009232;28;20750;-78
2021/07/15 06:10:28;;;;;;;11.50;4.50;;;;;;;;;;5002836;28;20092;-78
2021/07/15 06:12:55;;;;;;;14.30;4.75;;;;;;;;;;5009457;28;20132;-78
2021/07/15 06:15:23;;;;;;;7.13;4.75;;;;;;;;;;5008615;28;20062;-78
2021/07/15 06:17:50;;;;;;;9.02;4.85;;;;;;;;;;5008742;28;20093;-78
2021/07/15 06:20:17;;;;;;;8.00;4.90;;;;;;;;;;5001425;28;20129;-78
2021/07/15 06:22:45;;;;;;;8.95;4.05;;;;;;;;;;5004572;28;20103;-78
2021/07/15 06:25:13;;;;;;;13.02;4.43;;;;;;;;;;5008265;28;20084;-78
2021/07/15 06:27:40;;;;;;;14.48;3.88;;;;;;;;;;5006918;28;20135;-78
2021/07/15 06:30:08;;;;;;;9.77;4.20;;;;;;;;;;5000027;28;20078;-78
2021/07/15 06:32:37;;;;;;;6.10;3.45;;;;;;;;;;5007012;28;20050;-78
2021/07/15 06:35:05;;;;;;;14.68;3.90;;;;;;;;;;5006334;28;20131;-78
2021/07/15 06:37:33;;;;;;;5.68;3.65;;;;;;;;;;5008273;28;20136;-78
2021/07/15 06:40:05;;;;;;;5.63;3.00;;;;;;;;;;4999929;28;20053;-78
2021/07/15 06:42:33;;;;;;;5.55;3.45;;;;;;;;;;4999582;28;20050;-78
2021/07/15 06:45:00;;;;;;;7.05;3.10;;;;;;;;;;5007380;28;20488;-78
2021/07/15 06:47:27;;;;;;;8.52;3.33;;;;;;;;;;5007926;28;20093;-79
2021/07/15 06:52:51;;;;;;;7.10;3.28;;;;;;;;;;4981052;28;20078;-79
2021/07/15 06:55:18;;;;;;;8.55;3.17;;;;;;;;;;5000530;28;20566;-80
2021/07/15 06:57:47;;;;;;;8.20;2.97;;;;;;;;;;4973071;28;20051;-80
2021/07/15 07:00:16;;;;;;;6.57;2.78;;;;;;;;;;4980990;28;20093;-79
2021/07/15 07:02:44;;;;;;;6.18;2.88;;;;;;;;;;4980942;28;20085;-79
2021/07/15 07:05:12;;;;;;;7.25;3.28;;;;;;;;;;4973152;28;20061;-79
2021/07/15 07:07:44;;;;;;;20.98;2.80;;;;;;;;;;4973120;28;20055;-79
2021/07/15 07:10:12;;;;;;;7.75;3.28;;;;;;;;;;4966169;28;20161;-79
2021/07/15 07:12:40;;;;;;;4.15;2.45;;;;;;;;;;4976486;28;20126;-80
2021/07/15 07:15:08;;;;;;;3.85;2.28;;;;;;;;;;4986511;28;20093;-79
2021/07/15 07:17:36;;;;;;;3.78;2.13;;;;;;;;;;4992054;28;20499;-80
2021/07/15 07:20:04;;;;;;;3.47;2.42;;;;;;;;;;4985752;28;20532;-80
2021/07/15 07:22:31;;;;;;;12.70;2.67;;;;;;;;;;4988326;28;20134;-80
2021/07/15 07:24:58;;;;;;;5.75;2.10;;;;;;;;;;4991481;28;20069;-80
2021/07/15 07:27:25;;;;;;;5.97;2.42;;;;;;;;;;4991490;28;20093;-79
2021/07/15 07:29:52;;;;;;;4.55;2.03;;;;;;;;;;4997927;28;21577;-80
2021/07/15 07:32:19;;;;;;;13.98;2.78;;;;;;;;;;4984656;28;20089;-80
2021/07/15 07:34:49;;;;;;;9.40;2.33;;;;;;;;;;4971711;28;20138;-80
2021/07/15 07:37:16;;;;;;;4.63;2.50;;;;;;;;;;4987310;28;20135;-79
2021/07/15 07:39:43;;;;;;;6.25;2.00;;;;;;;;;;4967798;28;20510;-80
2021/07/15 07:42:10;;;;;;;5.60;2.10;;;;;;;;;;4995507;28;20125;-79
2021/07/15 07:44:38;;;;;;;4.07;2.17;;;;;;;;;;4982638;28;20090;-79
2021/07/15 07:47:05;;;;;;;2.65;2.13;;;;;;;;;;4991142;28;20288;-80
2021/07/15 07:49:32;;;;;;;7.18;2.13;;;;;;;;;;4988368;28;20066;-80
2021/07/15 07:51:59;;;;;;;6.47;2.17;;;;;;;;;;4985212;28;20077;-80
2021/07/15 07:54:26;;;;;;;5.38;2.17;;;;;;;;;;4990383;28;20082;-79
2021/07/15 07:56:53;;;;;;;3.97;2.00;;;;;;;;;;4990735;28;20050;-80
2021/07/15 07:59:24;;;;;;;5.50;2.33;;;;;;;;;;4986262;28;20505;-79
2021/07/15 08:01:51;;;;;;;7.40;1.90;;;;;;;;;;5000210;28;20114;-80
2021/07/15 08:04:18;;;;;;;1.77;1.50;;;;;;;;;;4990596;28;20534;-80
2021/07/15 08:06:48;;;;;;;3.80;1.75;;;;;;;;;;5000238;28;20140;-80
2021/07/15 08:09:16;;;;;;;4.28;1.92;;;;;;;;;;4983732;28;20472;-80
2021/07/15 08:11:49;;;;;;;2.13;1.67;;;;;;;;;;4983054;28;20051;-80
2021/07/15 08:14:16;;;;;;;5.32;1.70;;;;;;;;;;4977460;28;20046;-80
2021/07/15 08:16:45;;;;;;;4.30;1.67;;;;;;;;;;4988811;28;20735;-80
2021/07/15 08:19:13;;;;;;;4.40;2.03;;;;;;;;;;4986978;28;20050;-79
2021/07/15 08:21:40;;;;;;;4.45;2.33;;;;;;;;;;4995688;22;20440;-79
2021/07/15 08:24:07;;;;;;;4.25;1.67;;;;;;;;;;4995757;28;20124;-79
2021/07/15 08:26:35;;;;;;;5.65;2.10;;;;;;;;;;4996827;28;20046;-79
2021/07/15 08:29:02;;;;;;;2.95;1.70;;;;;;;;;;4989319;28;20522;-79
2021/07/15 08:31:29;;;;;;;6.95;2.10;;;;;;;;;;4977337;28;20155;-79
2021/07/15 08:33:56;;;;;;;6.32;1.80;;;;;;;;;;4982861;28;20129;-79
2021/07/15 08:36:25;;;;;;;3.78;2.17;;;;;;;;;;4986934;28;20133;-79
2021/07/15 08:38:52;;;;;;;2.65;1.77;;;;;;;;;;5000925;28;20050;-79
2021/07/15 08:41:20;;;;;;;5.07;1.88;;;;;;;;;;4990684;28;20137;-79
2021/07/15 08:43:47;;;;;;;4.72;2.00;;;;;;;;;;4992175;28;20133;-79
2021/07/15 08:46:15;;;;;;;2.30;2.10;;;;;;;;;;4987016;28;20562;-80
2021/07/15 08:48:44;;;;;;;2.35;1.90;;;;;;;;;;4985705;28;20107;-79
2021/07/15 08:53:39;;;;;;;3.58;1.92;;;;;;;;;;4968287;28;20670;-80
2021/07/15 08:58:53;;;;;;;6.97;1.90;;;;;;;;;;4970525;28;20089;-80
2021/07/15 09:01:20;;;;;;;4.35;1.83;;;;;;;;;;4961610;28;20138;-80
2021/07/15 09:03:48;;;;;;;7.97;2.13;;;;;;;;;;4980834;28;20124;-80
2021/07/15 09:06:17;;;;;;;9.75;2.00;;;;;;;;;;4988976;28;20081;-80
2021/07/15 09:08:44;;;;;;;1.90;1.70;;;;;;;;;;4974638;28;20050;-80
2021/07/15 09:11:11;;;;;;;5.13;1.95;;;;;;;;;;4949128;28;20387;-80
2021/07/15 09:13:42;;;;;;;5.38;1.90;;;;;;;;;;4961056;28;20234;-80
2021/07/15 09:16:11;;;;;;;3.83;2.13;;;;;;;;;;4951671;28;20767;-80
2021/07/15 09:18:58;;;;;;;3.35;2.00;;;;;;;;;;4950318;29;20055;-79
2021/07/15 09:21:26;;;;;;;3.17;1.90;;;;;;;;;;4943280;28;20617;-79
2021/07/15 09:23:53;;;;;;;2.53;1.75;;;;;;;;;;4954591;29;20146;-79
2021/07/15 09:26:21;;;;;;;2.20;1.90;;;;;;;;;;4954434;28;20058;-79
2021/07/15 09:28:48;;;;;;;2.42;2.00;;;;;;;;;;4953112;29;20599;-78
2021/07/15 09:31:16;;;;;;;6.43;1.98;;;;;;;;;;4961028;28;20059;-78
2021/07/15 09:33:44;;;;;;;2.13;1.60;;;;;;;;;;4973580;28;20139;-78
2021/07/15 09:36:12;;;;;;;1.83;1.60;;;;;;;;;;4973477;28;20130;-78
2021/07/15 09:38:40;;;;;;;4.25;2.22;;;;;;;;;;4973381;28;20133;-78
2021/07/15 09:41:08;;;;;;;4.25;1.98;;;;;;;;;;4963391;28;20082;-78
2021/07/15 09:43:41;;;;;;;2.10;1.90;;;;;;;;;;4973679;28;20146;-78
2021/07/15 09:46:14;;;;;;;1.90;1.70;;;;;;;;;;4972630;28;20509;-78
2021/07/15 09:48:42;;;;;;;3.90;1.67;;;;;;;;;;4973247;28;20150;-78
2021/07/15 09:51:11;;;;;;;2.42;1.73;;;;;;;;;;4963409;28;20081;-78
2021/07/15 09:53:40;;;;;;;4.82;1.98;;;;;;;;;;4971774;28;20137;-78
2021/07/15 09:56:08;;;;;;;4.13;2.20;;;;;;;;;;4969249;28;20134;-78
2021/07/15 09:58:36;;;;;;;4.43;1.90;;;;;;;;;;4953842;29;20082;-78
2021/07/15 10:01:13;;;;;;;2.58;1.75;;;;;;;;;;4946026;28;20062;-78
2021/07/15 10:03:45;;;;;;;6.97;2.35;;;;;;;;;;4954875;28;20135;-78
2021/07/15 10:06:13;;;;;;;4.47;1.98;;;;;;;;;;4971933;28;20054;-78
2021/07/15 10:08:42;;;;;;;4.43;2.20;;;;;;;;;;4973951;28;20087;-78
2021/07/15 10:11:19;;;;;;;2.08;1.50;;;;;;;;;;4963769;28;20074;-78
2021/07/15 10:13:59;;;;;;;3.53;1.80;;;;;;;;;;4973434;28;20090;-78
2021/07/15 10:16:31;;;;;;;2.65;1.55;;;;;;;;;;4972117;28;20047;-78
2021/07/15 10:18:58;;;;;;;3.15;2.00;;;;;;;;;;4971932;28;20556;-78
2021/07/15 10:21:27;;;;;;;5.22;2.20;;;;;;;;;;4964097;28;20078;-78
2021/07/15 10:23:54;;;;;;;2.95;2.60;;;;;;;;;;4972838;28;20137;-78
2021/07/15 10:26:27;;;;;;;4.00;1.58;;;;;;;;;;4972092;28;20125;-78
2021/07/15 10:28:55;;;;;;;3.97;2.03;;;;;;;;;;4971141;28;20085;-78
2021/07/15 10:31:23;;;;;;;6.43;1.73;;;;;;;;;;4962327;28;20054;-79
2021/07/15 10:33:52;;;;;;;2.88;1.65;;;;;;;;;;4971642;28;20050;-78
2021/07/15 10:36:21;;;;;;;3.20;1.98;;;;;;;;;;4973555;28;20043;-80
2021/07/15 10:38:51;;;;;;;2.17;1.90;;;;;;;;;;4973626;28;20105;-79
2021/07/15 10:41:23;;;;;;;4.72;2.08;;;;;;;;;;4963709;28;20432;-81
2021/07/15 10:43:53;;;;;;;6.05;1.92;;;;;;;;;;4972654;28;20078;-79
2021/07/15 10:46:27;;;;;;;5.20;2.28;;;;;;;;;;4978505;28;20546;-80
2021/07/15 10:49:12;;;;;;;4.47;1.92;;;;;;;;;;4972978;28;20035;-80
2021/07/15 10:51:40;;;;;;;4.32;1.77;;;;;;;;;;4963585;28;20113;-79
2021/07/15 10:54:08;;;;;;;5.13;1.90;;;;;;;;;;4970107;28;20162;-79
2021/07/15 10:56:35;;;;;;;2.88;1.95;;;;;;;;;;4968734;28;20082;-77
2021/07/15 10:59:04;;;;;;;4.55;2.05;;;;;;;;;;4968164;28;20738;-78
2021/07/15 11:01:41;;;;;;;6.20;2.17;;;;;;;;;;4963837;28;20856;-78
2021/07/15 11:04:13;;;;;;;14.10;2.55;;;;;;;;;;4967840;28;20059;-76
2021/07/15 11:06:42;;;;;;;2.92;2.00;;;;;;;;;;4974001;28;20079;-78
2021/07/15 11:09:11;;;;;;;2.13;1.80;;;;;;;;;;4961524;28;20142;-78
2021/07/15 11:11:42;;;;;;;3.65;2.00;;;;;;;;;;4967333;28;20055;-77
2021/07/15 11:14:29;;;;;;;3.88;1.83;;;;;;;;;;4974180;28;20059;-78
2021/07/15 11:17:03;;;;;;;4.68;1.80;;;;;;;;;;4969846;28;20078;-79
2021/07/15 11:19:49;;;;;;;3.83;2.10;;;;;;;;;;4969362;28;20062;-79
2021/07/15 11:22:35;;;;;;;4.28;1.98;;;;;;;;;;4961670;28;20785;-78
2021/07/15 11:25:07;;;;;;;2.33;1.90;;;;;;;;;;4967716;28;20058;-78
2021/07/15 11:27:38;;;;;;;4.90;2.05;;;;;;;;;;4967176;28;20138;-78
2021/07/15 11:30:08;;;;;;;4.82;2.20;;;;;;;;;;4965838;28;20104;-79
2021/07/15 11:32:37;;;;;;;2.97;1.88;;;;;;;;;;4968738;28;20086;-79
2021/07/15 11:35:25;;;;;;;4.07;1.60;;;;;;;;;;4970389;28;20062;-79
2021/07/15 11:38:08;;;;;;;2.80;1.90;;;;;;;;;;4983550;28;20664;-79
2021/07/15 11:40:36;;;;;;;6.25;1.80;;;;;;;;;;4955694;28;20163;-79
2021/07/15 11:43:16;;;;;;;3.60;1.60;;;;;;;;;;4966560;28;20057;-79
2021/07/15 11:46:02;;;;;;;2.85;1.80;;;;;;;;;;4959017;28;20491;-79
2021/07/15 11:49:08;;;;;;;2.10;1.75;;;;;;;;;;4966115;28;20087;-79
2021/07/15 11:51:36;;;;;;;9.07;3.33;;;;;;;;;;4917572;29;20435;-78
2021/07/15 11:54:14;;;;;;;2.15;1.50;;;;;;;;;;4966000;28;20046;-79
2021/07/15 11:56:42;;;;;;;3.50;1.95;;;;;;;;;;4971328;28;20150;-78
2021/07/15 11:59:10;;;;;;;2.75;1.70;;;;;;;;;;4970312;28;20143;-79
2021/07/15 12:01:39;;;;;;;3.25;1.58;;;;;;;;;;4963180;28;20061;-79
2021/07/15 12:04:08;;;;;;;4.78;1.85;;;;;;;;;;4970318;28;20081;-79
2021/07/15 12:06:37;;;;;;;3.47;1.80;;;;;;;;;;4970961;28;20141;-79
2021/07/15 12:09:06;;;;;;;2.05;1.40;;;;;;;;;;4968347;28;20058;-79
2021/07/15 12:11:38;;;;;;;4.78;1.73;;;;;;;;;;4954341;28;20153;-79
2021/07/15 12:14:06;;;;;;;4.07;1.73;;;;;;;;;;4962857;28;20070;-79
2021/07/15 12:16:40;;;;;;;1.75;1.50;;;;;;;;;;4985510;28;20491;-79
2021/07/15 12:19:08;;;;;;;1.55;1.40;;;;;;;;;;4970003;28;20055;-79
2021/07/15 12:21:37;;;;;;;4.57;2.30;;;;;;;;;;4977602;28;20128;-80
2021/07/15 12:24:11;;;;;;;4.97;1.48;;;;;;;;;;4970968;28;20085;-80
2021/07/15 12:26:39;;;;;;;10.38;1.90;;;;;;;;;;4985238;28;20055;-79
2021/07/15 12:29:11;;;;;;;4.88;1.48;;;;;;;;;;4950865;29;20138;-80
2021/07/15 12:31:38;;;;;;;4.00;2.03;;;;;;;;;;4951559;28;20130;-80
2021/07/15 12:34:07;;;;;;;3.28;2.13;;;;;;;;;;4950419;29;20051;-80
2021/07/15 12:36:36;;;;;;;5.38;2.03;;;;;;;;;;4950541;29;20047;-80
2021/07/15 12:39:08;;;;;;;1.98;1.60;;;;;;;;;;4950949;28;20055;-80
2021/07/15 12:41:37;;;;;;;3.45;1.77;;;;;;;;;;5038441;23;20870;-81
2021/07/15 12:44:09;;;;;;;3.72;1.80;;;;;;;;;;5002356;28;20050;-80
2021/07/15 12:46:38;;;;;;;7.45;2.35;;;;;;;;;;5024687;28;20060;-81
2021/07/15 12:49:14;;;;;;;2.03;1.83;;;;;;;;;;5014668;28;20050;-80
2021/07/15 12:51:41;;;;;;;3.08;1.70;;;;;;;;;;4997310;28;20734;-80
2021/07/15 12:54:09;;;;;;;4.75;1.80;;;;;;;;;;4991318;28;20057;-80
2021/07/15 12:56:40;;;;;;;9.45;1.52;;;;;;;;;;4990850;28;20054;-80
2021/07/15 12:59:11;;;;;;;1.85;1.52;;;;;;;;;;4990818;28;20105;-80
2021/07/15 13:01:40;;;;;;;3.70;1.70;;;;;;;;;;4986728;28;20638;-81
2021/07/15 13:04:18;;;;;;;2.25;1.67;;;;;;;;;;4994577;28;20089;-81
2021/07/15 13:06:47;;;;;;;2.40;2.08;;;;;;;;;;4993809;28;20145;-81
2021/07/15 13:09:44;;;;;;;3.00;1.60;;;;;;;;;;5004154;28;20054;-80
2021/07/15 13:15:11;;;;;;;3.67;1.65;;;;;;;;;;5012568;28;20136;-80
2021/07/15 13:17:42;;;;;;;2.05;1.55;;;;;;;;;;5011723;28;20045;-80
2021/07/15 13:20:14;;;;;;;3.95;1.75;;;;;;;;;;5005455;28;21063;-81
2021/07/15 13:22:48;;;;;;;2.50;1.60;;;;;;;;;;5205603;23;20448;-80
2021/07/15 13:25:17;;;;;;;5.15;2.10;;;;;;;;;;5013848;28;20064;-81
2021/07/15 13:27:45;;;;;;;3.72;1.73;;;;;;;;;;5024860;28;20073;-81
2021/07/15 13:30:17;;;;;;;3.47;1.42;;;;;;;;;;5007469;28;20104;-81
2021/07/15 13:32:45;;;;;;;2.25;1.60;;;;;;;;;;5018341;28;20132;-81
2021/07/15 13:35:14;;;;;;;2.50;1.58;;;;;;;;;;5022161;28;20124;-80
2021/07/15 13:37:41;;;;;;;2.15;1.58;;;;;;;;;;5031207;28;20084;-80
2021/07/15 13:40:18;;;;;;;1.38;1.15;;;;;;;;;;5023181;28;20133;-80
2021/07/15 13:42:46;;;;;;;3.50;2.03;;;;;;;;;;5024553;28;20140;-80
2021/07/15 13:45:14;;;;;;;2.97;1.92;;;;;;;;;;5026657;28;20093;-81
2021/07/15 13:47:42;;;;;;;2.83;1.73;;;;;;;;;;5006114;28;20141;-80
2021/07/15 13:50:12;;;;;;;1.45;1.30;;;;;;;;;;5000545;28;20537;-80
2021/07/15 13:52:40;;;;;;;2.75;1.40;;;;;;;;;;5011197;28;20109;-80
2021/07/15 13:55:09;;;;;;;5.32;1.50;;;;;;;;;;5012580;28;20491;-80
2021/07/15 13:57:40;;;;;;;4.60;2.05;;;;;;;;;;5011968;28;20100;-80
2021/07/15 14:00:15;;;;;;;5.57;2.50;;;;;;;;;;5007212;28;20389;-80
2021/07/15 14:02:43;;;;;;;3.77;1.70;;;;;;;;;;5010858;28;20054;-80
2021/07/15 14:05:10;;;;;;;2.78;1.70;;;;;;;;;;5014135;28;20057;-80
2021/07/15 14:07:37;;;;;;;2.38;1.45;;;;;;;;;;5011134;28;20777;-80
2021/07/15 14:10:06;;;;;;;2.53;1.80;;;;;;;;;;5005151;28;20054;-80
2021/07/15 14:12:35;;;;;;;2.95;1.70;;;;;;;;;;5009107;28;20054;-80
2021/07/15 14:15:02;;;;;;;2.88;1.92;;;;;;;;;;5012976;28;20501;-80
2021/07/15 14:17:30;;;;;;;4.18;1.92;;;;;;;;;;5011784;28;20088;-80
2021/07/15 14:19:57;;;;;;;2.80;1.83;;;;;;;;;;5005166;28;20141;-80
2021/07/15 14:22:25;;;;;;;6.22;2.00;;;;;;;;;;5008485;28;20156;-80
2021/07/15 14:24:53;;;;;;;2.47;1.60;;;;;;;;;;5013198;28;20172;-79
2021/07/15 14:27:22;;;;;;;4.78;1.85;;;;;;;;;;5012905;28;20479;-80
2021/07/15 14:29:50;;;;;;;4.43;1.60;;;;;;;;;;5008837;28;20096;-79
2021/07/15 14:32:17;;;;;;;3.53;1.63;;;;;;;;;;5007589;28;20046;-80
2021/07/15 14:34:46;;;;;;;1.80;1.60;;;;;;;;;;5012090;28;20053;-80
2021/07/15 14:37:14;;;;;;;5.32;2.15;;;;;;;;;;5010336;28;20076;-80
2021/07/15 14:39:41;;;;;;;7.35;2.30;;;;;;;;;;5002754;28;20145;-80
2021/07/15 14:42:11;;;;;;;10.32;3.20;;;;;;;;;;5003504;28;20146;-80
2021/07/15 14:44:38;;;;;;;3.53;1.83;;;;;;;;;;5010807;28;20081;-80
2021/07/15 14:47:07;;;;;;;2.83;1.80;;;;;;;;;;5013092;28;20065;-80
2021/07/15 14:49:34;;;;;;;6.93;2.13;;;;;;;;;;5005697;28;20064;-79
2021/07/15 14:52:02;;;;;;;3.10;1.90;;;;;;;;;;4996008;28;20057;-80
2021/07/15 14:54:29;;;;;;;2.10;1.90;;;;;;;;;;4992589;28;20093;-80
2021/07/15 14:56:56;;;;;;;6.15;2.00;;;;;;;;;;4992273;28;20137;-79
2021/07/15 14:59:32;;;;;;;9.52;2.25;;;;;;;;;;4989118;28;20692;-80
2021/07/15 15:01:59;;;;;;;3.20;1.85;;;;;;;;;;4985496;28;20133;-80
2021/07/15 15:04:29;;;;;;;8.93;1.67;;;;;;;;;;4992553;28;20516;-79